Hakuhomaru — JJ4011 — position and weather

sailwx.info

Track history (hours):
 
Tides and Currents Weather Stations Pressure Air Temp Water Temp Dewpoint Dewpoint Depression Visibility Wind Speed Wind Dir Waves Ship Positions

Hakuhomaru

Last reported at 2016-May-25 08:33 UTC. Time now 2016-May-25 16:51 UTC.
Position N 34°41' E 135°12'.

Length 38 m; draft 3.3 m.

Type: Tug. MMSI: 431401584.

Date/timePositionNaut miles runAvg speedWind from/ knotsBaromVisibWave heightAir tempDewpointWater temp
2016-May-25 08:33N 34°41' E 135°12'3 2.8
2016-May-25 07:33N 34°41' E 135°16'3 2.8
2016-May-25 06:33N 34°41' E 135°12'0 0.0
2016-May-25 05:33N 34°41' E 135°12'0 0.0
2016-May-25 04:33N 34°41' E 135°12'3 2.5
2016-May-25 03:33N 34°39' E 135°15'3 2.5
2016-May-25 02:33N 34°40' E 135°12'0 0.4
2016-May-25 01:33N 34°41' E 135°12'0 0.0
2016-May-25 00:33N 34°41' E 135°12'1 0.6
2016-May-24 23:33N 34°41' E 135°13'3 3.5
2016-May-24 22:33N 34°39' E 135°16'1 0.6
2016-May-24 21:33N 34°40' E 135°16'1 1.3
2016-May-24 20:33N 34°40' E 135°14'0 0.4
2016-May-24 19:33N 34°40' E 135°15'2 2.2
2016-May-24 18:33N 34°41' E 135°12'0 0.3
2016-May-24 17:33N 34°41' E 135°12'0 0.0
2016-May-24 16:33N 34°41' E 135°12'0 0.0
2016-May-24 15:33N 34°41' E 135°12'0 0.0
2016-May-24 08:09N 34°41' E 135°12'3 4.5
2016-May-24 07:33N 34°40' E 135°15'2 1.6
2016-May-24 06:22N 34°41' E 135°18'1 1.1
2016-May-24 05:32N 34°41' E 135°17'4 3.8
2016-May-24 04:33N 34°41' E 135°12'0 0.0
2016-May-24 03:33N 34°41' E 135°12'0 0.0
2016-May-24 02:33N 34°41' E 135°12'0 0.0
2016-May-24 01:33N 34°41' E 135°12'1 0.7
2016-May-24 00:33N 34°41' E 135°13'1 1.0
2016-May-23 23:33N 34°40' E 135°13'2 1.5
2016-May-23 22:33N 34°39' E 135°15'3 2.5
2016-May-23 21:33N 34°40' E 135°12'0 0.4
2016-May-23 20:33N 34°41' E 135°12'0 0.0
2016-May-23 06:33N 34°41' E 135°12'0 0.0
2016-May-23 05:33N 34°41' E 135°12'0 0.0
2016-May-23 04:33N 34°41' E 135°12'0 0.0
2016-May-23 03:33N 34°41' E 135°12'0 0.0
2016-May-23 02:33N 34°41' E 135°12'0 0.0
2016-May-23 01:33N 34°41' E 135°12'0 0.0
2016-May-23 00:33N 34°41' E 135°12'1 1.2
2016-May-22 23:33N 34°41' E 135°14'3 2.9
2016-May-22 22:32N 34°39' E 135°16'4 3.9
2016-May-22 21:33N 34°41' E 135°12'0 0.0
2016-May-22 20:33N 34°41' E 135°12'0 0.0
2016-May-22 08:34N 34°41' E 135°12'1 0.8
2016-May-22 07:33N 34°41' E 135°11'1 0.8
2016-May-22 06:33N 34°41' E 135°12'0 0.0
2016-May-22 05:33N 34°41' E 135°12'0 0.0
2016-May-22 04:34N 34°41' E 135°12'0 0.0
2016-May-22 03:34N 34°41' E 135°12'0 0.0
2016-May-22 02:33N 34°41' E 135°12'0 0.0
2016-May-22 01:33N 34°41' E 135°12'0 0.0
2016-May-22 00:34N 34°41' E 135°12'2 1.8
2016-May-21 23:33N 34°39' E 135°11'2 1.8
2016-May-21 22:34N 34°41' E 135°12'2 0.1
2016-May-20 13:34N 34°40' E 135°15'2 1.6
2016-May-20 12:33N 34°40' E 135°13'0 0.0
2016-May-20 11:33N 34°40' E 135°13'0 0.0
2016-May-20 10:33N 34°40' E 135°13'2 2.1
2016-May-20 09:33N 34°42' E 135°15'1 0.8
2016-May-20 08:33N 34°42' E 135°16'3 3.3
2016-May-20 07:33N 34°41' E 135°12'0 0.0
2016-May-20 06:33N 34°41' E 135°12'0 0.5
2016-May-20 05:33N 34°41' E 135°12'2 1.8
2016-May-20 04:33N 34°40' E 135°14'2 1.8
2016-May-20 03:33N 34°41' E 135°12'0 0.0
2016-May-20 02:33N 34°41' E 135°12'0 0.0
2016-May-20 01:33N 34°41' E 135°12'2 2.0
2016-May-20 00:33N 34°40' E 135°15'2 2.1
2016-May-19 23:33N 34°39' E 135°16'4 3.8
2016-May-19 22:32N 34°41' E 135°12'0 0.0
2016-May-19 10:33N 34°41' E 135°12'3 3.1
2016-May-19 09:33N 34°42' E 135°16'1 1.2
2016-May-19 08:33N 34°41' E 135°14'1 1.2
2016-May-19 07:33N 34°40' E 135°14'0 0.4
2016-May-19 06:33N 34°40' E 135°15'0 0.3
2016-May-19 05:33N 34°40' E 135°15'1 1.4
2016-May-19 04:33N 34°41' E 135°13'1 0.8
2016-May-19 03:33N 34°41' E 135°12'0 0.0
2016-May-19 02:33N 34°41' E 135°12'0 0.0
2016-May-19 01:33N 34°41' E 135°12'0 0.0
2016-May-19 00:33N 34°41' E 135°12'0 0.0
2016-May-18 23:34N 34°41' E 135°12'4 3.7
2016-May-18 22:33N 34°39' E 135°16'3 2.6
2016-May-18 21:33N 34°41' E 135°14'1 1.5
2016-May-18 20:33N 34°41' E 135°12'0 0.0
2016-May-18 09:24N 34°41' E 135°12'2 2.8
2016-May-18 08:33N 34°39' E 135°15'1 1.2
2016-May-18 07:33N 34°40' E 135°14'2 1.7
2016-May-18 06:33N 34°41' E 135°12'0 0.0
2016-May-18 05:33N 34°41' E 135°12'0 0.0
2016-May-18 04:33N 34°41' E 135°12'0 0.0
2016-May-18 03:33N 34°41' E 135°12'0 0.0
2016-May-18 02:33N 34°41' E 135°12'0 0.0
2016-May-18 01:33N 34°41' E 135°12'0 0.0
2016-May-18 00:33N 34°41' E 135°12'0 0.0
2016-May-17 23:33N 34°41' E 135°12'2 1.9
2016-May-17 22:33N 34°40' E 135°15'1 1.5
2016-May-17 21:33N 34°39' E 135°14'2 2.2
2016-May-17 20:33N 34°41' E 135°12'0 0.0
2016-May-17 09:19N 34°41' E 135°12'6 7.9
2016-May-17 08:33N 34°40' E 135°19'3 3.3
2016-May-17 07:34N 34°38' E 135°23'0 0.3
2016-May-17 06:33N 34°38' E 135°23'3 2.8
2016-May-17 05:26N 34°38' E 135°27'7 8.4
2016-May-17 04:33N 34°41' E 135°18'5 4.4
2016-May-17 03:30N 34°41' E 135°12'0 0.0
2016-May-17 02:24N 34°41' E 135°12'0 0.0
2016-May-17 01:24N 34°41' E 135°12'0 0.0
2016-May-17 00:24N 34°41' E 135°12'0 0.0
2016-May-16 23:24N 34°41' E 135°12'1 0.0
2016-May-15 23:33N 34°41' E 135°13'2 1.9
2016-May-15 22:33N 34°40' E 135°15'0 0.2
2016-May-15 21:19N 34°40' E 135°15'2 2.4
2016-May-15 20:27N 34°41' E 135°12'3 2.4
2016-May-15 19:22N 34°39' E 135°15'0 0.0
2016-May-15 18:22N 34°39' E 135°15'0 0.0
2016-May-15 17:28N 34°39' E 135°15'0 0.0
2016-May-15 16:28N 34°39' E 135°15'0 0.0
2016-May-15 15:28N 34°39' E 135°15'0 0.0
2016-May-15 14:10N 34°39' E 135°15'0 0.0
2016-May-15 13:27N 34°39' E 135°15'2 1.8
2016-May-15 12:33N 34°38' E 135°17'3 3.4
2016-May-15 11:33N 34°41' E 135°14'0 0.0
2016-May-15 10:24N 34°41' E 135°14'2 2.3
2016-May-15 09:33N 34°39' E 135°16'  
Track history (hours):
 
Tides and Currents Weather Stations Pressure Air Temp Water Temp Dewpoint Dewpoint Depression Visibility Wind Speed Wind Dir Waves Ship Positions

Hakuhomaru

Last reported at 2016-May-25 08:33 UTC. Time now 2016-May-25 16:51 UTC.
Position N 34°41' E 135°12'.

Length 38 m; draft 3.3 m.

Type: Tug. MMSI: 431401584.

Date/timePositionNaut miles runAvg speedWind from/ knotsBaromVisibWave heightAir tempDewpointWater temp
2016-May-25 08:33N 34°41' E 135°12'3 2.8
2016-May-25 07:33N 34°41' E 135°16'3 2.8
2016-May-25 06:33N 34°41' E 135°12'0 0.0
2016-May-25 05:33N 34°41' E 135°12'0 0.0
2016-May-25 04:33N 34°41' E 135°12'3 2.5
2016-May-25 03:33N 34°39' E 135°15'3 2.5
2016-May-25 02:33N 34°40' E 135°12'0 0.4
2016-May-25 01:33N 34°41' E 135°12'0 0.0
2016-May-25 00:33N 34°41' E 135°12'1 0.6
2016-May-24 23:33N 34°41' E 135°13'3 3.5
2016-May-24 22:33N 34°39' E 135°16'1 0.6
2016-May-24 21:33N 34°40' E 135°16'1 1.3
2016-May-24 20:33N 34°40' E 135°14'0 0.4
2016-May-24 19:33N 34°40' E 135°15'2 2.2
2016-May-24 18:33N 34°41' E 135°12'0 0.3
2016-May-24 17:33N 34°41' E 135°12'0 0.0
2016-May-24 16:33N 34°41' E 135°12'0 0.0
2016-May-24 15:33N 34°41' E 135°12'0 0.0
2016-May-24 08:09N 34°41' E 135°12'3 4.5
2016-May-24 07:33N 34°40' E 135°15'2 1.6
2016-May-24 06:22N 34°41' E 135°18'1 1.1
2016-May-24 05:32N 34°41' E 135°17'4 3.8
2016-May-24 04:33N 34°41' E 135°12'0 0.0
2016-May-24 03:33N 34°41' E 135°12'0 0.0
2016-May-24 02:33N 34°41' E 135°12'0 0.0
2016-May-24 01:33N 34°41' E 135°12'1 0.7
2016-May-24 00:33N 34°41' E 135°13'1 1.0
2016-May-23 23:33N 34°40' E 135°13'2 1.5
2016-May-23 22:33N 34°39' E 135°15'3 2.5
2016-May-23 21:33N 34°40' E 135°12'0 0.4
2016-May-23 20:33N 34°41' E 135°12'0 0.0
2016-May-23 06:33N 34°41' E 135°12'0 0.0
2016-May-23 05:33N 34°41' E 135°12'0 0.0
2016-May-23 04:33N 34°41' E 135°12'0 0.0
2016-May-23 03:33N 34°41' E 135°12'0 0.0
2016-May-23 02:33N 34°41' E 135°12'0 0.0
2016-May-23 01:33N 34°41' E 135°12'0 0.0
2016-May-23 00:33N 34°41' E 135°12'1 1.2
2016-May-22 23:33N 34°41' E 135°14'3 2.9
2016-May-22 22:32N 34°39' E 135°16'4 3.9
2016-May-22 21:33N 34°41' E 135°12'0 0.0
2016-May-22 20:33N 34°41' E 135°12'0 0.0
2016-May-22 08:34N 34°41' E 135°12'1 0.8
2016-May-22 07:33N 34°41' E 135°11'1 0.8
2016-May-22 06:33N 34°41' E 135°12'0 0.0
2016-May-22 05:33N 34°41' E 135°12'0 0.0
2016-May-22 04:34N 34°41' E 135°12'0 0.0
2016-May-22 03:34N 34°41' E 135°12'0 0.0
2016-May-22 02:33N 34°41' E 135°12'0 0.0
2016-May-22 01:33N 34°41' E 135°12'0 0.0
2016-May-22 00:34N 34°41' E 135°12'2 1.8
2016-May-21 23:33N 34°39' E 135°11'2 1.8
2016-May-21 22:34N 34°41' E 135°12'2 0.1
2016-May-20 13:34N 34°40' E 135°15'2 1.6
2016-May-20 12:33N 34°40' E 135°13'0 0.0
2016-May-20 11:33N 34°40' E 135°13'0 0.0
2016-May-20 10:33N 34°40' E 135°13'2 2.1
2016-May-20 09:33N 34°42' E 135°15'1 0.8
2016-May-20 08:33N 34°42' E 135°16'3 3.3
2016-May-20 07:33N 34°41' E 135°12'0 0.0
2016-May-20 06:33N 34°41' E 135°12'0 0.5
2016-May-20 05:33N 34°41' E 135°12'2 1.8
2016-May-20 04:33N 34°40' E 135°14'2 1.8
2016-May-20 03:33N 34°41' E 135°12'0 0.0
2016-May-20 02:33N 34°41' E 135°12'0 0.0
2016-May-20 01:33N 34°41' E 135°12'2 2.0
2016-May-20 00:33N 34°40' E 135°15'2 2.1
2016-May-19 23:33N 34°39' E 135°16'4 3.8
2016-May-19 22:32N 34°41' E 135°12'0 0.0
2016-May-19 10:33N 34°41' E 135°12'3 3.1
2016-May-19 09:33N 34°42' E 135°16'1 1.2
2016-May-19 08:33N 34°41' E 135°14'1 1.2
2016-May-19 07:33N 34°40' E 135°14'0 0.4
2016-May-19 06:33N 34°40' E 135°15'0 0.3
2016-May-19 05:33N 34°40' E 135°15'1 1.4
2016-May-19 04:33N 34°41' E 135°13'1 0.8
2016-May-19 03:33N 34°41' E 135°12'0 0.0
2016-May-19 02:33N 34°41' E 135°12'0 0.0
2016-May-19 01:33N 34°41' E 135°12'0 0.0
2016-May-19 00:33N 34°41' E 135°12'0 0.0
2016-May-18 23:34N 34°41' E 135°12'4 3.7
2016-May-18 22:33N 34°39' E 135°16'3 2.6
2016-May-18 21:33N 34°41' E 135°14'1 1.5
2016-May-18 20:33N 34°41' E 135°12'0 0.0
2016-May-18 09:24N 34°41' E 135°12'2 2.8
2016-May-18 08:33N 34°39' E 135°15'1 1.2
2016-May-18 07:33N 34°40' E 135°14'2 1.7
2016-May-18 06:33N 34°41' E 135°12'0 0.0
2016-May-18 05:33N 34°41' E 135°12'0 0.0
2016-May-18 04:33N 34°41' E 135°12'0 0.0
2016-May-18 03:33N 34°41' E 135°12'0 0.0
2016-May-18 02:33N 34°41' E 135°12'0 0.0
2016-May-18 01:33N 34°41' E 135°12'0 0.0
2016-May-18 00:33N 34°41' E 135°12'0 0.0
2016-May-17 23:33N 34°41' E 135°12'2 1.9
2016-May-17 22:33N 34°40' E 135°15'1 1.5
2016-May-17 21:33N 34°39' E 135°14'2 2.2
2016-May-17 20:33N 34°41' E 135°12'0 0.0
2016-May-17 09:19N 34°41' E 135°12'6 7.9
2016-May-17 08:33N 34°40' E 135°19'3 3.3
2016-May-17 07:34N 34°38' E 135°23'0 0.3
2016-May-17 06:33N 34°38' E 135°23'3 2.8
2016-May-17 05:26N 34°38' E 135°27'7 8.4
2016-May-17 04:33N 34°41' E 135°18'5 4.4
2016-May-17 03:30N 34°41' E 135°12'0 0.0
2016-May-17 02:24N 34°41' E 135°12'0 0.0
2016-May-17 01:24N 34°41' E 135°12'0 0.0
2016-May-17 00:24N 34°41' E 135°12'0 0.0
2016-May-16 23:24N 34°41' E 135°12'1 0.0
2016-May-15 23:33N 34°41' E 135°13'2 1.9
2016-May-15 22:33N 34°40' E 135°15'0 0.2
2016-May-15 21:19N 34°40' E 135°15'2 2.4
2016-May-15 20:27N 34°41' E 135°12'3 2.4
2016-May-15 19:22N 34°39' E 135°15'0 0.0
2016-May-15 18:22N 34°39' E 135°15'0 0.0
2016-May-15 17:28N 34°39' E 135°15'0 0.0
2016-May-15 16:28N 34°39' E 135°15'0 0.0
2016-May-15 15:28N 34°39' E 135°15'0 0.0
2016-May-15 14:10N 34°39' E 135°15'0 0.0
2016-May-15 13:27N 34°39' E 135°15'2 1.8
2016-May-15 12:33N 34°38' E 135°17'3 3.4
2016-May-15 11:33N 34°41' E 135°14'0 0.0
2016-May-15 10:24N 34°41' E 135°14'2 2.3
2016-May-15 09:33N 34°39' E 135°16'  

Dump ship's entire track history